sensor_id;sensor_type;location;lat;lon;timestamp;temperature;humidity
7736;DHT22;3911;48.830;9.072;2022-09-03T00:02:09;24.00;51.60
7736;DHT22;3911;48.830;9.072;2022-09-03T00:04:59;24.00;51.60
7736;DHT22;3911;48.830;9.072;2022-09-03T00:07:31;24.00;51.60
7736;DHT22;3911;48.830;9.072;2022-09-03T00:09:57;23.90;51.50
7736;DHT22;3911;48.830;9.072;2022-09-03T00:12:27;24.00;51.60
7736;DHT22;3911;48.830;9.072;2022-09-03T00:14:56;24.00;51.60
7736;DHT22;3911;48.830;9.072;2022-09-03T00:17:23;24.00;51.60
7736;DHT22;3911;48.830;9.072;2022-09-03T00:19:54;24.00;51.60
7736;DHT22;3911;48.830;9.072;2022-09-03T00:22:21;24.00;51.60
7736;DHT22;3911;48.830;9.072;2022-09-03T00:24:47;24.00;51.60
7736;DHT22;3911;48.830;9.072;2022-09-03T00:27:15;23.90;51.50
7736;DHT22;3911;48.830;9.072;2022-09-03T00:29:43;24.00;51.60
7736;DHT22;3911;48.830;9.072;2022-09-03T00:32:12;23.90;51.50
7736;DHT22;3911;48.830;9.072;2022-09-03T00:34:38;24.00;51.60
7736;DHT22;3911;48.830;9.072;2022-09-03T00:37:05;24.00;51.60
7736;DHT22;3911;48.830;9.072;2022-09-03T00:39:31;24.00;51.60
7736;DHT22;3911;48.830;9.072;2022-09-03T00:44:47;24.00;51.60
7736;DHT22;3911;48.830;9.072;2022-09-03T00:47:18;24.00;51.60
7736;DHT22;3911;48.830;9.072;2022-09-03T00:49:49;24.00;51.60
7736;DHT22;3911;48.830;9.072;2022-09-03T00:52:19;23.90;51.50
7736;DHT22;3911;48.830;9.072;2022-09-03T00:54:55;23.90;51.50
7736;DHT22;3911;48.830;9.072;2022-09-03T00:57:38;23.90;51.50
7736;DHT22;3911;48.830;9.072;2022-09-03T01:00:09;23.90;51.50
7736;DHT22;3911;48.830;9.072;2022-09-03T01:02:40;23.90;51.50
7736;DHT22;3911;48.830;9.072;2022-09-03T01:05:10;23.90;51.50
7736;DHT22;3911;48.830;9.072;2022-09-03T01:07:39;23.90;51.50
7736;DHT22;3911;48.830;9.072;2022-09-03T01:10:29;23.90;51.50
7736;DHT22;3911;48.830;9.072;2022-09-03T01:15:34;23.90;51.50
7736;DHT22;3911;48.830;9.072;2022-09-03T01:26:38;23.90;51.50
7736;DHT22;3911;48.830;9.072;2022-09-03T01:30:07;23.90;51.50
7736;DHT22;3911;48.830;9.072;2022-09-03T01:32:03;23.90;50.90
7736;DHT22;3911;48.830;9.072;2022-09-03T01:34:40;23.90;51.50
7736;DHT22;3911;48.830;9.072;2022-09-03T01:37:13;23.90;51.50
7736;DHT22;3911;48.830;9.072;2022-09-03T01:39:40;23.90;51.50
7736;DHT22;3911;48.830;9.072;2022-09-03T01:45:05;23.90;51.50
7736;DHT22;3911;48.830;9.072;2022-09-03T01:47:42;23.90;51.50
7736;DHT22;3911;48.830;9.072;2022-09-03T01:50:08;23.90;51.50
7736;DHT22;3911;48.830;9.072;2022-09-03T01:52:39;23.90;51.60
7736;DHT22;3911;48.830;9.072;2022-09-03T01:55:13;23.80;51.50
7736;DHT22;3911;48.830;9.072;2022-09-03T01:57:49;23.80;51.50
7736;DHT22;3911;48.830;9.072;2022-09-03T02:00:15;23.90;51.70
7736;DHT22;3911;48.830;9.072;2022-09-03T02:02:42;23.80;51.50
7736;DHT22;3911;48.830;9.072;2022-09-03T02:05:11;23.90;51.50
7736;DHT22;3911;48.830;9.072;2022-09-03T02:07:41;23.80;51.50
7736;DHT22;3911;48.830;9.072;2022-09-03T02:10:08;23.90;51.50
7736;DHT22;3911;48.830;9.072;2022-09-03T02:12:34;23.90;51.50
7736;DHT22;3911;48.830;9.072;2022-09-03T02:15:04;23.80;51.50
7736;DHT22;3911;48.830;9.072;2022-09-03T02:17:29;23.80;51.50
7736;DHT22;3911;48.830;9.072;2022-09-03T02:19:55;23.80;51.50
7736;DHT22;3911;48.830;9.072;2022-09-03T02:22:23;23.80;51.50
7736;DHT22;3911;48.830;9.072;2022-09-03T02:24:49;23.80;51.40
7736;DHT22;3911;48.830;9.072;2022-09-03T02:27:16;23.80;51.50
7736;DHT22;3911;48.830;9.072;2022-09-03T02:29:42;23.80;51.50
7736;DHT22;3911;48.830;9.072;2022-09-03T02:32:09;23.80;51.50
7736;DHT22;3911;48.830;9.072;2022-09-03T02:34:36;23.80;51.50
7736;DHT22;3911;48.830;9.072;2022-09-03T02:37:10;23.80;51.40
7736;DHT22;3911;48.830;9.072;2022-09-03T02:39:29;23.80;52.10
7736;DHT22;3911;48.830;9.072;2022-09-03T02:41:57;23.80;51.50
7736;DHT22;3911;48.830;9.072;2022-09-03T02:44:27;23.80;51.50
7736;DHT22;3911;48.830;9.072;2022-09-03T02:46:56;23.80;51.40
7736;DHT22;3911;48.830;9.072;2022-09-03T02:49:20;23.80;51.50
7736;DHT22;3911;48.830;9.072;2022-09-03T02:51:47;23.80;51.50
7736;DHT22;3911;48.830;9.072;2022-09-03T02:54:14;23.80;51.50
7736;DHT22;3911;48.830;9.072;2022-09-03T02:56:41;23.80;51.50
7736;DHT22;3911;48.830;9.072;2022-09-03T02:59:07;23.80;51.50
7736;DHT22;3911;48.830;9.072;2022-09-03T03:01:35;23.80;51.50
7736;DHT22;3911;48.830;9.072;2022-09-03T03:04:03;23.80;51.50
7736;DHT22;3911;48.830;9.072;2022-09-03T03:06:29;23.80;51.40
7736;DHT22;3911;48.830;9.072;2022-09-03T03:08:56;23.80;51.50
7736;DHT22;3911;48.830;9.072;2022-09-03T03:11:22;23.80;51.50
7736;DHT22;3911;48.830;9.072;2022-09-03T03:13:49;23.80;51.50
7736;DHT22;3911;48.830;9.072;2022-09-03T03:16:16;23.80;51.50
7736;DHT22;3911;48.830;9.072;2022-09-03T03:18:42;23.80;51.50
7736;DHT22;3911;48.830;9.072;2022-09-03T03:21:13;23.80;51.60
7736;DHT22;3911;48.830;9.072;2022-09-03T03:23:38;23.80;52.10
7736;DHT22;3911;48.830;9.072;2022-09-03T03:26:07;23.80;51.50
7736;DHT22;3911;48.830;9.072;2022-09-03T03:28:33;23.70;51.40
7736;DHT22;3911;48.830;9.072;2022-09-03T03:31:13;23.80;51.50
7736;DHT22;3911;48.830;9.072;2022-09-03T03:33:40;23.80;51.50
7736;DHT22;3911;48.830;9.072;2022-09-03T03:36:09;23.80;52.20
7736;DHT22;3911;48.830;9.072;2022-09-03T03:38:35;23.70;51.40
7736;DHT22;3911;48.830;9.072;2022-09-03T03:41:10;23.80;51.50
7736;DHT22;3911;48.830;9.072;2022-09-03T03:43:36;23.80;51.50
7736;DHT22;3911;48.830;9.072;2022-09-03T03:46:03;23.80;51.50
7736;DHT22;3911;48.830;9.072;2022-09-03T03:48:30;23.70;51.40
7736;DHT22;3911;48.830;9.072;2022-09-03T03:51:02;23.70;51.40
7736;DHT22;3911;48.830;9.072;2022-09-03T03:53:30;23.70;51.40
7736;DHT22;3911;48.830;9.072;2022-09-03T03:55:57;23.70;51.40
7736;DHT22;3911;48.830;9.072;2022-09-03T03:58:23;23.70;51.40
7736;DHT22;3911;48.830;9.072;2022-09-03T04:00:50;23.70;51.40
7736;DHT22;3911;48.830;9.072;2022-09-03T04:03:16;23.70;51.40
7736;DHT22;3911;48.830;9.072;2022-09-03T04:05:43;23.70;51.40
7736;DHT22;3911;48.830;9.072;2022-09-03T04:08:09;23.70;51.40
7736;DHT22;3911;48.830;9.072;2022-09-03T04:10:36;23.70;51.40
7736;DHT22;3911;48.830;9.072;2022-09-03T04:13:03;23.70;51.40
7736;DHT22;3911;48.830;9.072;2022-09-03T04:15:30;23.70;51.40
7736;DHT22;3911;48.830;9.072;2022-09-03T04:17:58;23.70;51.40
7736;DHT22;3911;48.830;9.072;2022-09-03T04:20:25;23.70;51.40
7736;DHT22;3911;48.830;9.072;2022-09-03T04:22:52;23.70;51.40
7736;DHT22;3911;48.830;9.072;2022-09-03T04:25:18;23.70;51.40
7736;DHT22;3911;48.830;9.072;2022-09-03T04:27:45;23.70;51.40
7736;DHT22;3911;48.830;9.072;2022-09-03T04:30:12;23.70;51.40
7736;DHT22;3911;48.830;9.072;2022-09-03T04:32:38;23.70;51.40
7736;DHT22;3911;48.830;9.072;2022-09-03T04:35:11;23.70;51.40
7736;DHT22;3911;48.830;9.072;2022-09-03T04:37:37;23.70;51.40
7736;DHT22;3911;48.830;9.072;2022-09-03T04:40:04;23.70;51.40
7736;DHT22;3911;48.830;9.072;2022-09-03T04:42:31;23.70;51.40
7736;DHT22;3911;48.830;9.072;2022-09-03T04:44:58;23.70;52.20
7736;DHT22;3911;48.830;9.072;2022-09-03T04:47:26;23.70;51.40
7736;DHT22;3911;48.830;9.072;2022-09-03T04:49:53;23.70;51.40
7736;DHT22;3911;48.830;9.072;2022-09-03T04:52:20;23.70;51.40
7736;DHT22;3911;48.830;9.072;2022-09-03T04:54:48;23.70;51.40
7736;DHT22;3911;48.830;9.072;2022-09-03T04:57:15;23.70;51.40
7736;DHT22;3911;48.830;9.072;2022-09-03T04:59:42;23.70;51.40
7736;DHT22;3911;48.830;9.072;2022-09-03T05:02:08;23.70;51.40
7736;DHT22;3911;48.830;9.072;2022-09-03T05:04:35;23.70;51.40
7736;DHT22;3911;48.830;9.072;2022-09-03T05:07:02;23.70;51.40
7736;DHT22;3911;48.830;9.072;2022-09-03T05:09:28;23.70;51.40
7736;DHT22;3911;48.830;9.072;2022-09-03T05:11:55;23.60;51.30
7736;DHT22;3911;48.830;9.072;2022-09-03T05:14:22;23.60;51.30
7736;DHT22;3911;48.830;9.072;2022-09-03T05:16:50;23.60;51.30
7736;DHT22;3911;48.830;9.072;2022-09-03T05:19:17;23.60;51.30
7736;DHT22;3911;48.830;9.072;2022-09-03T05:21:44;23.70;51.40
7736;DHT22;3911;48.830;9.072;2022-09-03T05:24:11;23.60;51.30
7736;DHT22;3911;48.830;9.072;2022-09-03T05:26:39;23.60;51.30
7736;DHT22;3911;48.830;9.072;2022-09-03T05:29:06;23.60;51.30
7736;DHT22;3911;48.830;9.072;2022-09-03T05:31:34;23.60;51.30
7736;DHT22;3911;48.830;9.072;2022-09-03T05:34:00;23.60;51.30
7736;DHT22;3911;48.830;9.072;2022-09-03T05:36:27;23.60;51.30
7736;DHT22;3911;48.830;9.072;2022-09-03T05:38:54;23.60;51.30
7736;DHT22;3911;48.830;9.072;2022-09-03T05:41:22;23.60;51.30
7736;DHT22;3911;48.830;9.072;2022-09-03T05:43:49;23.60;51.30
7736;DHT22;3911;48.830;9.072;2022-09-03T05:46:26;23.60;51.30
7736;DHT22;3911;48.830;9.072;2022-09-03T05:48:53;23.60;51.30
7736;DHT22;3911;48.830;9.072;2022-09-03T05:51:20;23.60;51.30
7736;DHT22;3911;48.830;9.072;2022-09-03T05:53:47;23.60;51.30
7736;DHT22;3911;48.830;9.072;2022-09-03T05:56:17;23.60;51.20
7736;DHT22;3911;48.830;9.072;2022-09-03T05:58:46;23.60;51.30
7736;DHT22;3911;48.830;9.072;2022-09-03T06:01:15;23.60;51.20
7736;DHT22;3911;48.830;9.072;2022-09-03T06:03:43;23.60;51.30
7736;DHT22;3911;48.830;9.072;2022-09-03T06:06:10;23.60;51.30
7736;DHT22;3911;48.830;9.072;2022-09-03T06:08:37;23.60;51.30
7736;DHT22;3911;48.830;9.072;2022-09-03T06:11:04;23.60;51.30
7736;DHT22;3911;48.830;9.072;2022-09-03T06:13:32;23.60;51.30
7736;DHT22;3911;48.830;9.072;2022-09-03T06:16:00;23.60;51.30
7736;DHT22;3911;48.830;9.072;2022-09-03T06:18:27;23.60;51.30
7736;DHT22;3911;48.830;9.072;2022-09-03T06:20:57;23.60;51.30
7736;DHT22;3911;48.830;9.072;2022-09-03T06:23:23;23.60;51.20
7736;DHT22;3911;48.830;9.072;2022-09-03T06:28:29;23.60;51.30
7736;DHT22;3911;48.830;9.072;2022-09-03T06:30:56;23.60;51.30
7736;DHT22;3911;48.830;9.072;2022-09-03T06:33:22;23.60;51.30
7736;DHT22;3911;48.830;9.072;2022-09-03T06:35:53;23.60;51.20
7736;DHT22;3911;48.830;9.072;2022-09-03T06:38:19;23.60;51.20
7736;DHT22;3911;48.830;9.072;2022-09-03T06:40:51;23.60;51.30
7736;DHT22;3911;48.830;9.072;2022-09-03T06:43:17;23.60;51.30
7736;DHT22;3911;48.830;9.072;2022-09-03T06:45:51;23.60;51.30
7736;DHT22;3911;48.830;9.072;2022-09-03T06:48:10;23.60;51.30
7736;DHT22;3911;48.830;9.072;2022-09-03T06:50:36;23.60;51.30
7736;DHT22;3911;48.830;9.072;2022-09-03T06:53:04;23.60;51.30
7736;DHT22;3911;48.830;9.072;2022-09-03T06:55:31;23.60;51.30
7736;DHT22;3911;48.830;9.072;2022-09-03T06:57:59;23.60;51.30
7736;DHT22;3911;48.830;9.072;2022-09-03T07:00:26;23.60;51.30
7736;DHT22;3911;48.830;9.072;2022-09-03T07:02:56;23.60;51.30
7736;DHT22;3911;48.830;9.072;2022-09-03T07:05:22;23.60;51.30
7736;DHT22;3911;48.830;9.072;2022-09-03T07:07:49;23.60;51.30
7736;DHT22;3911;48.830;9.072;2022-09-03T07:10:15;23.60;51.30
7736;DHT22;3911;48.830;9.072;2022-09-03T07:12:42;23.60;51.30
7736;DHT22;3911;48.830;9.072;2022-09-03T07:15:09;23.60;51.30
7736;DHT22;3911;48.830;9.072;2022-09-03T07:17:36;23.60;51.30
7736;DHT22;3911;48.830;9.072;2022-09-03T07:20:02;23.60;51.30
7736;DHT22;3911;48.830;9.072;2022-09-03T07:22:29;23.60;51.30
7736;DHT22;3911;48.830;9.072;2022-09-03T07:24:56;23.60;51.30
7736;DHT22;3911;48.830;9.072;2022-09-03T07:27:23;23.60;51.30
7736;DHT22;3911;48.830;9.072;2022-09-03T07:29:49;23.60;51.30
7736;DHT22;3911;48.830;9.072;2022-09-03T07:32:16;23.60;51.30
7736;DHT22;3911;48.830;9.072;2022-09-03T07:34:42;23.60;51.30
7736;DHT22;3911;48.830;9.072;2022-09-03T07:37:10;23.60;51.30
7736;DHT22;3911;48.830;9.072;2022-09-03T07:39:37;23.60;51.30
7736;DHT22;3911;48.830;9.072;2022-09-03T07:42:04;23.60;51.30
7736;DHT22;3911;48.830;9.072;2022-09-03T07:44:30;23.60;51.60
7736;DHT22;3911;48.830;9.072;2022-09-03T07:46:58;23.60;51.30
7736;DHT22;3911;48.830;9.072;2022-09-03T07:49:25;23.60;51.30
7736;DHT22;3911;48.830;9.072;2022-09-03T07:51:52;23.60;51.40
7736;DHT22;3911;48.830;9.072;2022-09-03T07:54:20;23.60;51.30
7736;DHT22;3911;48.830;9.072;2022-09-03T07:56:47;23.60;51.30
7736;DHT22;3911;48.830;9.072;2022-09-03T07:59:14;23.60;51.30
7736;DHT22;3911;48.830;9.072;2022-09-03T08:01:40;23.60;51.30
7736;DHT22;3911;48.830;9.072;2022-09-03T08:04:07;23.60;51.30
7736;DHT22;3911;48.830;9.072;2022-09-03T08:06:34;23.60;51.30
7736;DHT22;3911;48.830;9.072;2022-09-03T08:09:03;23.60;51.30
7736;DHT22;3911;48.830;9.072;2022-09-03T08:11:28;23.60;51.30
7736;DHT22;3911;48.830;9.072;2022-09-03T08:13:58;23.60;51.30
7736;DHT22;3911;48.830;9.072;2022-09-03T08:16:24;23.60;51.30
7736;DHT22;3911;48.830;9.072;2022-09-03T08:18:51;23.60;51.30
7736;DHT22;3911;48.830;9.072;2022-09-03T08:21:18;23.60;51.30
7736;DHT22;3911;48.830;9.072;2022-09-03T08:23:45;23.60;51.30
7736;DHT22;3911;48.830;9.072;2022-09-03T08:26:12;23.60;51.30
7736;DHT22;3911;48.830;9.072;2022-09-03T08:28:39;23.60;51.30
7736;DHT22;3911;48.830;9.072;2022-09-03T08:31:10;23.60;51.30
7736;DHT22;3911;48.830;9.072;2022-09-03T08:33:39;23.60;51.20
7736;DHT22;3911;48.830;9.072;2022-09-03T08:36:07;23.60;51.30
7736;DHT22;3911;48.830;9.072;2022-09-03T08:38:33;23.60;51.30
7736;DHT22;3911;48.830;9.072;2022-09-03T08:41:03;23.60;51.30
7736;DHT22;3911;48.830;9.072;2022-09-03T08:43:29;23.60;51.30
7736;DHT22;3911;48.830;9.072;2022-09-03T08:45:56;23.60;51.30
7736;DHT22;3911;48.830;9.072;2022-09-03T08:48:23;23.60;51.30
7736;DHT22;3911;48.830;9.072;2022-09-03T08:50:51;23.60;51.30
7736;DHT22;3911;48.830;9.072;2022-09-03T08:53:25;23.60;51.30
7736;DHT22;3911;48.830;9.072;2022-09-03T08:55:50;23.60;51.30
7736;DHT22;3911;48.830;9.072;2022-09-03T08:58:16;23.60;51.20
7736;DHT22;3911;48.830;9.072;2022-09-03T09:00:49;23.60;51.20
7736;DHT22;3911;48.830;9.072;2022-09-03T09:06:06;23.60;51.30
7736;DHT22;3911;48.830;9.072;2022-09-03T09:08:34;23.60;51.30
7736;DHT22;3911;48.830;9.072;2022-09-03T09:11:02;23.60;51.30
7736;DHT22;3911;48.830;9.072;2022-09-03T09:13:32;23.60;51.30
7736;DHT22;3911;48.830;9.072;2022-09-03T09:16:05;23.60;51.20
7736;DHT22;3911;48.830;9.072;2022-09-03T09:18:43;23.60;51.30
7736;DHT22;3911;48.830;9.072;2022-09-03T09:21:17;23.60;51.30
7736;DHT22;3911;48.830;9.072;2022-09-03T09:23:43;23.60;51.30
7736;DHT22;3911;48.830;9.072;2022-09-03T09:26:11;23.60;51.20
7736;DHT22;3911;48.830;9.072;2022-09-03T09:28:37;23.60;51.20
7736;DHT22;3911;48.830;9.072;2022-09-03T09:31:06;23.60;51.30
7736;DHT22;3911;48.830;9.072;2022-09-03T09:33:32;23.60;51.20
7736;DHT22;3911;48.830;9.072;2022-09-03T09:35:59;23.60;51.20
7736;DHT22;3911;48.830;9.072;2022-09-03T09:38:29;23.60;51.20
7736;DHT22;3911;48.830;9.072;2022-09-03T09:40:54;23.60;51.20
7736;DHT22;3911;48.830;9.072;2022-09-03T09:43:21;23.60;51.30
7736;DHT22;3911;48.830;9.072;2022-09-03T09:45:49;23.60;51.30
7736;DHT22;3911;48.830;9.072;2022-09-03T09:48:20;23.60;51.30
7736;DHT22;3911;48.830;9.072;2022-09-03T09:50:45;23.60;51.30
7736;DHT22;3911;48.830;9.072;2022-09-03T09:53:12;23.60;51.30
7736;DHT22;3911;48.830;9.072;2022-09-03T09:55:49;23.60;51.30
7736;DHT22;3911;48.830;9.072;2022-09-03T09:58:17;23.60;51.30
7736;DHT22;3911;48.830;9.072;2022-09-03T10:00:52;23.60;51.30
7736;DHT22;3911;48.830;9.072;2022-09-03T10:03:09;23.60;51.30
7736;DHT22;3911;48.830;9.072;2022-09-03T10:05:35;23.60;51.30
7736;DHT22;3911;48.830;9.072;2022-09-03T10:08:05;23.60;51.30
7736;DHT22;3911;48.830;9.072;2022-09-03T10:10:43;23.60;51.40
7736;DHT22;3911;48.830;9.072;2022-09-03T10:13:10;23.60;51.30
7736;DHT22;3911;48.830;9.072;2022-09-03T10:15:49;23.60;51.30
7736;DHT22;3911;48.830;9.072;2022-09-03T10:18:16;23.60;51.40
7736;DHT22;3911;48.830;9.072;2022-09-03T10:20:44;23.60;51.30
7736;DHT22;3911;48.830;9.072;2022-09-03T10:23:21;23.60;51.30
7736;DHT22;3911;48.830;9.072;2022-09-03T10:26:08;23.60;51.30
7736;DHT22;3911;48.830;9.072;2022-09-03T10:28:36;23.60;51.30
7736;DHT22;3911;48.830;9.072;2022-09-03T10:31:12;23.60;51.30
7736;DHT22;3911;48.830;9.072;2022-09-03T10:33:42;23.60;51.30
7736;DHT22;3911;48.830;9.072;2022-09-03T10:36:27;23.70;51.40
7736;DHT22;3911;48.830;9.072;2022-09-03T10:39:00;23.70;51.40
7736;DHT22;3911;48.830;9.072;2022-09-03T10:41:42;23.70;51.40
7736;DHT22;3911;48.830;9.072;2022-09-03T10:44:12;23.60;51.30
7736;DHT22;3911;48.830;9.072;2022-09-03T10:46:55;23.70;51.40
7736;DHT22;3911;48.830;9.072;2022-09-03T10:49:23;23.70;51.30
7736;DHT22;3911;48.830;9.072;2022-09-03T10:51:56;23.70;51.30
7736;DHT22;3911;48.830;9.072;2022-09-03T10:54:54;23.70;51.30
7736;DHT22;3911;48.830;9.072;2022-09-03T10:57:25;23.70;51.30
7736;DHT22;3911;48.830;9.072;2022-09-03T10:59:57;23.70;51.30
7736;DHT22;3911;48.830;9.072;2022-09-03T11:02:30;23.70;51.30
7736;DHT22;3911;48.830;9.072;2022-09-03T11:04:57;23.70;51.30
7736;DHT22;3911;48.830;9.072;2022-09-03T11:07:24;23.70;51.30
7736;DHT22;3911;48.830;9.072;2022-09-03T11:09:54;23.70;51.30
7736;DHT22;3911;48.830;9.072;2022-09-03T11:12:22;23.70;51.30
7736;DHT22;3911;48.830;9.072;2022-09-03T11:14:51;23.70;51.30
7736;DHT22;3911;48.830;9.072;2022-09-03T11:17:26;23.70;51.30
7736;DHT22;3911;48.830;9.072;2022-09-03T11:20:02;23.70;51.30
7736;DHT22;3911;48.830;9.072;2022-09-03T11:22:24;23.70;51.30
7736;DHT22;3911;48.830;9.072;2022-09-03T11:24:53;23.70;51.40
7736;DHT22;3911;48.830;9.072;2022-09-03T11:28:04;23.70;51.40
7736;DHT22;3911;48.830;9.072;2022-09-03T11:30:14;23.70;51.40
7736;DHT22;3911;48.830;9.072;2022-09-03T11:32:44;23.70;51.40
7736;DHT22;3911;48.830;9.072;2022-09-03T11:35:13;23.70;51.40
7736;DHT22;3911;48.830;9.072;2022-09-03T11:37:51;23.70;51.40
7736;DHT22;3911;48.830;9.072;2022-09-03T11:40:16;23.70;51.40
7736;DHT22;3911;48.830;9.072;2022-09-03T11:42:43;23.70;51.40
7736;DHT22;3911;48.830;9.072;2022-09-03T11:45:32;23.70;51.40
7736;DHT22;3911;48.830;9.072;2022-09-03T11:47:49;23.70;51.40
7736;DHT22;3911;48.830;9.072;2022-09-03T11:50:23;23.70;51.50
7736;DHT22;3911;48.830;9.072;2022-09-03T11:52:50;23.70;51.80
7736;DHT22;3911;48.830;9.072;2022-09-03T11:55:25;23.70;51.50
7736;DHT22;3911;48.830;9.072;2022-09-03T11:57:51;23.70;51.40
7736;DHT22;3911;48.830;9.072;2022-09-03T12:00:18;23.70;51.60
7736;DHT22;3911;48.830;9.072;2022-09-03T12:02:47;23.70;51.50
7736;DHT22;3911;48.830;9.072;2022-09-03T12:05:20;23.70;51.50
7736;DHT22;3911;48.830;9.072;2022-09-03T12:07:52;23.70;51.50
7736;DHT22;3911;48.830;9.072;2022-09-03T12:10:16;23.70;51.50
7736;DHT22;3911;48.830;9.072;2022-09-03T12:13:00;23.70;51.50
7736;DHT22;3911;48.830;9.072;2022-09-03T12:17:58;23.70;51.50
7736;DHT22;3911;48.830;9.072;2022-09-03T12:20:43;23.70;51.50
7736;DHT22;3911;48.830;9.072;2022-09-03T12:23:10;23.70;51.50
7736;DHT22;3911;48.830;9.072;2022-09-03T12:25:42;23.80;51.60
7736;DHT22;3911;48.830;9.072;2022-09-03T12:28:10;23.80;51.60
7736;DHT22;3911;48.830;9.072;2022-09-03T12:30:31;23.80;51.70
7736;DHT22;3911;48.830;9.072;2022-09-03T12:33:02;23.80;51.60
7736;DHT22;3911;48.830;9.072;2022-09-03T12:35:28;23.70;51.50
7736;DHT22;3911;48.830;9.072;2022-09-03T12:37:54;23.80;51.60
7736;DHT22;3911;48.830;9.072;2022-09-03T12:40:22;23.80;51.70
7736;DHT22;3911;48.830;9.072;2022-09-03T12:42:48;23.70;51.50
7736;DHT22;3911;48.830;9.072;2022-09-03T12:45:17;23.80;51.70
7736;DHT22;3911;48.830;9.072;2022-09-03T12:47:41;23.70;51.60
7736;DHT22;3911;48.830;9.072;2022-09-03T12:50:10;23.70;51.60
7736;DHT22;3911;48.830;9.072;2022-09-03T12:52:40;23.70;51.60
7736;DHT22;3911;48.830;9.072;2022-09-03T12:55:14;23.70;51.80
7736;DHT22;3911;48.830;9.072;2022-09-03T12:57:42;23.70;51.70
7736;DHT22;3911;48.830;9.072;2022-09-03T13:00:09;23.70;51.70
7736;DHT22;3911;48.830;9.072;2022-09-03T13:02:45;23.70;51.70
7736;DHT22;3911;48.830;9.072;2022-09-03T13:05:12;23.70;51.70
7736;DHT22;3911;48.830;9.072;2022-09-03T13:07:37;23.70;51.70
7736;DHT22;3911;48.830;9.072;2022-09-03T13:10:04;23.70;51.70
7736;DHT22;3911;48.830;9.072;2022-09-03T13:12:33;23.70;51.60
7736;DHT22;3911;48.830;9.072;2022-09-03T13:15:04;23.70;51.70
7736;DHT22;3911;48.830;9.072;2022-09-03T13:17:29;23.70;51.70
7736;DHT22;3911;48.830;9.072;2022-09-03T13:20:02;23.80;51.80
7736;DHT22;3911;48.830;9.072;2022-09-03T13:25:32;23.70;51.70
7736;DHT22;3911;48.830;9.072;2022-09-03T13:28:06;23.80;51.80
7736;DHT22;3911;48.830;9.072;2022-09-03T13:30:31;23.80;51.70
7736;DHT22;3911;48.830;9.072;2022-09-03T13:33:03;23.70;51.70
7736;DHT22;3911;48.830;9.072;2022-09-03T13:38:24;23.70;51.70
7736;DHT22;3911;48.830;9.072;2022-09-03T13:40:51;23.70;51.70
7736;DHT22;3911;48.830;9.072;2022-09-03T13:43:23;23.70;51.80
7736;DHT22;3911;48.830;9.072;2022-09-03T13:45:50;23.70;51.70
7736;DHT22;3911;48.830;9.072;2022-09-03T13:48:20;23.70;51.80
7736;DHT22;3911;48.830;9.072;2022-09-03T13:50:58;23.70;51.80
7736;DHT22;3911;48.830;9.072;2022-09-03T13:54:30;23.70;51.70
7736;DHT22;3911;48.830;9.072;2022-09-03T13:56:06;23.80;51.80
7736;DHT22;3911;48.830;9.072;2022-09-03T13:58:37;23.80;51.80
7736;DHT22;3911;48.830;9.072;2022-09-03T14:01:10;23.80;51.80
7736;DHT22;3911;48.830;9.072;2022-09-03T14:03:42;23.80;51.90
7736;DHT22;3911;48.830;9.072;2022-09-03T14:06:12;23.80;51.70
7736;DHT22;3911;48.830;9.072;2022-09-03T14:08:44;23.80;51.70
7736;DHT22;3911;48.830;9.072;2022-09-03T14:11:20;23.80;51.70
7736;DHT22;3911;48.830;9.072;2022-09-03T14:16:54;23.80;51.70
7736;DHT22;3911;48.830;9.072;2022-09-03T14:19:31;23.80;51.80
7736;DHT22;3911;48.830;9.072;2022-09-03T14:21:53;23.80;51.80
7736;DHT22;3911;48.830;9.072;2022-09-03T14:24:20;23.80;51.80
7736;DHT22;3911;48.830;9.072;2022-09-03T14:26:50;23.80;51.80
7736;DHT22;3911;48.830;9.072;2022-09-03T14:29:15;23.80;51.70
7736;DHT22;3911;48.830;9.072;2022-09-03T14:31:50;23.80;51.70
7736;DHT22;3911;48.830;9.072;2022-09-03T14:34:23;23.80;51.90
7736;DHT22;3911;48.830;9.072;2022-09-03T14:36:52;23.80;51.80
7736;DHT22;3911;48.830;9.072;2022-09-03T14:39:33;23.80;51.80
7736;DHT22;3911;48.830;9.072;2022-09-03T14:42:10;23.80;51.80
7736;DHT22;3911;48.830;9.072;2022-09-03T14:50:15;23.80;51.90
7736;DHT22;3911;48.830;9.072;2022-09-03T14:52:44;23.80;51.90
7736;DHT22;3911;48.830;9.072;2022-09-03T14:55:09;23.80;51.90
7736;DHT22;3911;48.830;9.072;2022-09-03T14:57:46;23.80;51.90
7736;DHT22;3911;48.830;9.072;2022-09-03T15:00:20;23.80;51.90
7736;DHT22;3911;48.830;9.072;2022-09-03T15:05:34;23.90;51.80
7736;DHT22;3911;48.830;9.072;2022-09-03T15:07:57;24.00;51.60
7736;DHT22;3911;48.830;9.072;2022-09-03T15:10:30;24.00;51.40
7736;DHT22;3911;48.830;9.072;2022-09-03T15:12:56;24.10;51.40
7736;DHT22;3911;48.830;9.072;2022-09-03T15:15:23;24.20;51.30
7736;DHT22;3911;48.830;9.072;2022-09-03T15:18:02;24.20;51.20
7736;DHT22;3911;48.830;9.072;2022-09-03T15:20:32;24.10;51.10
7736;DHT22;3911;48.830;9.072;2022-09-03T15:23:19;24.10;51.20
7736;DHT22;3911;48.830;9.072;2022-09-03T15:26:36;24.10;51.30
7736;DHT22;3911;48.830;9.072;2022-09-03T15:31:21;24.00;51.40
7736;DHT22;3911;48.830;9.072;2022-09-03T15:33:50;24.10;51.50
7736;DHT22;3911;48.830;9.072;2022-09-03T15:36:16;24.10;51.40
7736;DHT22;3911;48.830;9.072;2022-09-03T15:41:45;24.10;51.50
7736;DHT22;3911;48.830;9.072;2022-09-03T15:44:12;24.10;51.50
7736;DHT22;3911;48.830;9.072;2022-09-03T15:46:47;24.00;51.60
7736;DHT22;3911;48.830;9.072;2022-09-03T15:49:19;24.00;51.60
7736;DHT22;3911;48.830;9.072;2022-09-03T15:54:32;23.90;51.70
7736;DHT22;3911;48.830;9.072;2022-09-03T15:56:58;23.90;51.70
7736;DHT22;3911;48.830;9.072;2022-09-03T15:59:28;23.90;51.70
7736;DHT22;3911;48.830;9.072;2022-09-03T16:01:54;23.90;51.80
7736;DHT22;3911;48.830;9.072;2022-09-03T16:04:24;23.90;51.80
7736;DHT22;3911;48.830;9.072;2022-09-03T16:14:57;23.80;51.80
7736;DHT22;3911;48.830;9.072;2022-09-03T16:17:27;23.80;51.90
7736;DHT22;3911;48.830;9.072;2022-09-03T16:19:59;23.80;51.80
7736;DHT22;3911;48.830;9.072;2022-09-03T16:22:27;23.80;51.90
7736;DHT22;3911;48.830;9.072;2022-09-03T16:24:58;23.80;51.90
7736;DHT22;3911;48.830;9.072;2022-09-03T16:27:23;23.80;51.90
7736;DHT22;3911;48.830;9.072;2022-09-03T16:30:21;23.80;51.90
7736;DHT22;3911;48.830;9.072;2022-09-03T16:35:15;23.80;51.90
7736;DHT22;3911;48.830;9.072;2022-09-03T16:38:09;23.80;51.90
7736;DHT22;3911;48.830;9.072;2022-09-03T16:43:25;23.80;51.90
7736;DHT22;3911;48.830;9.072;2022-09-03T16:46:04;23.90;52.00
7736;DHT22;3911;48.830;9.072;2022-09-03T16:48:32;23.90;52.00
7736;DHT22;3911;48.830;9.072;2022-09-03T16:53:38;23.90;52.00
7736;DHT22;3911;48.830;9.072;2022-09-03T16:58:53;23.90;52.00
7736;DHT22;3911;48.830;9.072;2022-09-03T17:01:30;23.90;52.00
7736;DHT22;3911;48.830;9.072;2022-09-03T17:03:52;23.90;52.00
7736;DHT22;3911;48.830;9.072;2022-09-03T17:06:26;23.90;52.00
7736;DHT22;3911;48.830;9.072;2022-09-03T17:08:52;23.80;52.00
7736;DHT22;3911;48.830;9.072;2022-09-03T17:11:29;23.80;51.90
7736;DHT22;3911;48.830;9.072;2022-09-03T17:14:27;23.90;52.00
7736;DHT22;3911;48.830;9.072;2022-09-03T17:17:03;23.90;52.00
7736;DHT22;3911;48.830;9.072;2022-09-03T17:19:49;23.90;52.10
7736;DHT22;3911;48.830;9.072;2022-09-03T17:25:02;23.80;52.00
7736;DHT22;3911;48.830;9.072;2022-09-03T17:30:08;23.90;52.10
7736;DHT22;3911;48.830;9.072;2022-09-03T17:33:10;23.90;52.10